sensor_id;sensor_type;location;lat;lon;timestamp;P1;durP1;ratioP1;P2;durP2;ratioP2
54171;SDS011;40076;52.354;4.970;2022-09-24T00:01:53;47.15;;;33.70;;
54171;SDS011;40076;52.354;4.970;2022-09-24T00:04:18;48.53;;;34.88;;
54171;SDS011;40076;52.354;4.970;2022-09-24T00:06:44;44.35;;;32.92;;
54171;SDS011;40076;52.354;4.970;2022-09-24T00:09:12;45.42;;;33.53;;
54171;SDS011;40076;52.354;4.970;2022-09-24T00:11:39;47.28;;;34.25;;
54171;SDS011;40076;52.354;4.970;2022-09-24T00:14:05;49.50;;;36.15;;
54171;SDS011;40076;52.354;4.970;2022-09-24T00:16:31;46.85;;;36.40;;
54171;SDS011;40076;52.354;4.970;2022-09-24T00:18:58;46.85;;;35.15;;
54171;SDS011;40076;52.354;4.970;2022-09-24T00:21:26;44.33;;;33.63;;
54171;SDS011;40076;52.354;4.970;2022-09-24T00:23:54;45.25;;;33.92;;
54171;SDS011;40076;52.354;4.970;2022-09-24T00:26:21;48.10;;;34.28;;
54171;SDS011;40076;52.354;4.970;2022-09-24T00:29:06;47.08;;;34.40;;
54171;SDS011;40076;52.354;4.970;2022-09-24T00:31:32;47.97;;;34.30;;
54171;SDS011;40076;52.354;4.970;2022-09-24T00:33:58;47.47;;;35.20;;
54171;SDS011;40076;52.354;4.970;2022-09-24T00:36:25;46.30;;;34.90;;
54171;SDS011;40076;52.354;4.970;2022-09-24T00:38:52;48.20;;;36.05;;
54171;SDS011;40076;52.354;4.970;2022-09-24T00:41:19;46.30;;;34.97;;
54171;SDS011;40076;52.354;4.970;2022-09-24T00:43:46;45.88;;;33.92;;
54171;SDS011;40076;52.354;4.970;2022-09-24T00:49:23;42.33;;;32.22;;
54171;SDS011;40076;52.354;4.970;2022-09-24T00:51:49;44.88;;;33.33;;
54171;SDS011;40076;52.354;4.970;2022-09-24T00:54:18;40.28;;;32.63;;
54171;SDS011;40076;52.354;4.970;2022-09-24T00:56:49;40.63;;;32.88;;
54171;SDS011;40076;52.354;4.970;2022-09-24T00:59:17;39.35;;;31.55;;
54171;SDS011;40076;52.354;4.970;2022-09-24T01:01:45;40.40;;;31.50;;
54171;SDS011;40076;52.354;4.970;2022-09-24T01:04:12;39.70;;;31.45;;
54171;SDS011;40076;52.354;4.970;2022-09-24T01:06:40;36.90;;;29.45;;
54171;SDS011;40076;52.354;4.970;2022-09-24T01:09:06;37.92;;;30.75;;
54171;SDS011;40076;52.354;4.970;2022-09-24T01:11:40;36.75;;;30.95;;
54171;SDS011;40076;52.354;4.970;2022-09-24T01:14:37;40.10;;;31.30;;
54171;SDS011;40076;52.354;4.970;2022-09-24T01:30:50;37.53;;;29.58;;
54171;SDS011;40076;52.354;4.970;2022-09-24T01:35:50;36.10;;;27.70;;
54171;SDS011;40076;52.354;4.970;2022-09-24T01:38:20;36.00;;;28.65;;
54171;SDS011;40076;52.354;4.970;2022-09-24T01:40:50;34.70;;;27.67;;
54171;SDS011;40076;52.354;4.970;2022-09-24T01:43:18;33.25;;;27.30;;
54171;SDS011;40076;52.354;4.970;2022-09-24T01:45:45;33.03;;;27.10;;
54171;SDS011;40076;52.354;4.970;2022-09-24T01:48:11;35.03;;;27.65;;
54171;SDS011;40076;52.354;4.970;2022-09-24T01:50:42;33.75;;;26.83;;
54171;SDS011;40076;52.354;4.970;2022-09-24T01:55:49;34.40;;;27.42;;
54171;SDS011;40076;52.354;4.970;2022-09-24T01:58:35;34.80;;;28.08;;
54171;SDS011;40076;52.354;4.970;2022-09-24T02:01:09;35.45;;;27.58;;
54171;SDS011;40076;52.354;4.970;2022-09-24T02:03:44;36.80;;;29.13;;
54171;SDS011;40076;52.354;4.970;2022-09-24T02:06:25;35.25;;;28.33;;
54171;SDS011;40076;52.354;4.970;2022-09-24T02:08:57;33.45;;;27.55;;
54171;SDS011;40076;52.354;4.970;2022-09-24T02:11:23;34.17;;;27.95;;
54171;SDS011;40076;52.354;4.970;2022-09-24T02:13:52;35.10;;;27.52;;
54171;SDS011;40076;52.354;4.970;2022-09-24T02:16:39;32.85;;;27.23;;
54171;SDS011;40076;52.354;4.970;2022-09-24T02:19:10;35.78;;;28.35;;
54171;SDS011;40076;52.354;4.970;2022-09-24T02:21:39;30.05;;;25.70;;
54171;SDS011;40076;52.354;4.970;2022-09-24T02:24:07;33.85;;;27.08;;
54171;SDS011;40076;52.354;4.970;2022-09-24T02:26:37;35.35;;;26.70;;
54171;SDS011;40076;52.354;4.970;2022-09-24T02:29:03;35.22;;;27.08;;
54171;SDS011;40076;52.354;4.970;2022-09-24T02:31:30;32.33;;;26.73;;
54171;SDS011;40076;52.354;4.970;2022-09-24T02:33:59;31.77;;;25.50;;
54171;SDS011;40076;52.354;4.970;2022-09-24T02:36:52;31.73;;;23.85;;
54171;SDS011;40076;52.354;4.970;2022-09-24T02:39:19;29.92;;;24.10;;
54171;SDS011;40076;52.354;4.970;2022-09-24T02:41:45;32.95;;;24.98;;
54171;SDS011;40076;52.354;4.970;2022-09-24T02:44:12;32.20;;;25.02;;
54171;SDS011;40076;52.354;4.970;2022-09-24T02:46:42;33.10;;;24.75;;
54171;SDS011;40076;52.354;4.970;2022-09-24T02:49:08;33.05;;;25.58;;
54171;SDS011;40076;52.354;4.970;2022-09-24T02:51:34;34.08;;;25.90;;
54171;SDS011;40076;52.354;4.970;2022-09-24T02:54:00;33.17;;;25.15;;
54171;SDS011;40076;52.354;4.970;2022-09-24T02:56:26;30.33;;;23.88;;
54171;SDS011;40076;52.354;4.970;2022-09-24T02:58:52;29.45;;;24.25;;
54171;SDS011;40076;52.354;4.970;2022-09-24T03:01:18;29.23;;;24.48;;
54171;SDS011;40076;52.354;4.970;2022-09-24T03:03:43;30.75;;;24.38;;
54171;SDS011;40076;52.354;4.970;2022-09-24T03:06:09;31.77;;;24.58;;
54171;SDS011;40076;52.354;4.970;2022-09-24T03:08:36;33.65;;;26.48;;
54171;SDS011;40076;52.354;4.970;2022-09-24T03:11:02;34.28;;;26.83;;
54171;SDS011;40076;52.354;4.970;2022-09-24T03:13:27;34.75;;;26.02;;
54171;SDS011;40076;52.354;4.970;2022-09-24T03:15:52;37.00;;;27.85;;
54171;SDS011;40076;52.354;4.970;2022-09-24T03:18:18;33.97;;;25.90;;
54171;SDS011;40076;52.354;4.970;2022-09-24T03:20:52;34.95;;;25.67;;
54171;SDS011;40076;52.354;4.970;2022-09-24T03:23:18;36.70;;;27.02;;
54171;SDS011;40076;52.354;4.970;2022-09-24T03:25:43;35.00;;;26.50;;
54171;SDS011;40076;52.354;4.970;2022-09-24T03:28:08;34.67;;;26.73;;
54171;SDS011;40076;52.354;4.970;2022-09-24T03:30:34;34.38;;;26.55;;
54171;SDS011;40076;52.354;4.970;2022-09-24T03:33:18;35.03;;;27.02;;
54171;SDS011;40076;52.354;4.970;2022-09-24T03:35:43;32.22;;;25.55;;
54171;SDS011;40076;52.354;4.970;2022-09-24T03:38:08;31.85;;;25.00;;
54171;SDS011;40076;52.354;4.970;2022-09-24T03:40:34;35.55;;;26.63;;
54171;SDS011;40076;52.354;4.970;2022-09-24T03:42:59;34.53;;;25.05;;
54171;SDS011;40076;52.354;4.970;2022-09-24T03:45:24;34.17;;;26.85;;
54171;SDS011;40076;52.354;4.970;2022-09-24T03:47:50;35.08;;;25.10;;
54171;SDS011;40076;52.354;4.970;2022-09-24T03:50:15;32.92;;;26.08;;
54171;SDS011;40076;52.354;4.970;2022-09-24T03:52:41;34.42;;;26.52;;
54171;SDS011;40076;52.354;4.970;2022-09-24T03:55:06;32.22;;;25.52;;
54171;SDS011;40076;52.354;4.970;2022-09-24T03:57:32;35.35;;;26.38;;
54171;SDS011;40076;52.354;4.970;2022-09-24T03:59:57;36.03;;;27.38;;
54171;SDS011;40076;52.354;4.970;2022-09-24T04:02:23;37.35;;;27.77;;
54171;SDS011;40076;52.354;4.970;2022-09-24T04:04:49;36.78;;;27.70;;
54171;SDS011;40076;52.354;4.970;2022-09-24T04:07:14;38.92;;;27.98;;
54171;SDS011;40076;52.354;4.970;2022-09-24T04:09:40;34.65;;;26.75;;
54171;SDS011;40076;52.354;4.970;2022-09-24T04:12:05;34.80;;;26.65;;
54171;SDS011;40076;52.354;4.970;2022-09-24T04:14:30;31.30;;;24.75;;
54171;SDS011;40076;52.354;4.970;2022-09-24T04:16:56;35.53;;;26.63;;
54171;SDS011;40076;52.354;4.970;2022-09-24T04:19:22;36.88;;;27.38;;
54171;SDS011;40076;52.354;4.970;2022-09-24T04:21:48;37.65;;;27.17;;
54171;SDS011;40076;52.354;4.970;2022-09-24T04:24:13;35.83;;;26.63;;
54171;SDS011;40076;52.354;4.970;2022-09-24T04:26:39;36.25;;;26.98;;
54171;SDS011;40076;52.354;4.970;2022-09-24T04:29:04;41.15;;;27.42;;
54171;SDS011;40076;52.354;4.970;2022-09-24T04:31:30;35.30;;;25.02;;
54171;SDS011;40076;52.354;4.970;2022-09-24T04:33:57;32.10;;;24.77;;
54171;SDS011;40076;52.354;4.970;2022-09-24T04:36:22;32.30;;;24.48;;
54171;SDS011;40076;52.354;4.970;2022-09-24T04:38:48;34.72;;;24.88;;
54171;SDS011;40076;52.354;4.970;2022-09-24T04:41:13;32.20;;;24.63;;
54171;SDS011;40076;52.354;4.970;2022-09-24T04:43:42;34.13;;;24.73;;
54171;SDS011;40076;52.354;4.970;2022-09-24T04:46:10;36.45;;;25.35;;
54171;SDS011;40076;52.354;4.970;2022-09-24T04:48:36;32.58;;;24.35;;
54171;SDS011;40076;52.354;4.970;2022-09-24T04:51:03;35.60;;;25.75;;
54171;SDS011;40076;52.354;4.970;2022-09-24T04:53:35;30.15;;;20.88;;
54171;SDS011;40076;52.354;4.970;2022-09-24T04:56:02;30.38;;;22.38;;
54171;SDS011;40076;52.354;4.970;2022-09-24T04:58:28;29.35;;;20.70;;
54171;SDS011;40076;52.354;4.970;2022-09-24T05:00:54;29.80;;;20.65;;
54171;SDS011;40076;52.354;4.970;2022-09-24T05:03:19;25.63;;;18.17;;
54171;SDS011;40076;52.354;4.970;2022-09-24T05:05:45;16.38;;;10.45;;
54171;SDS011;40076;52.354;4.970;2022-09-24T05:08:11;11.68;;;7.65;;
54171;SDS011;40076;52.354;4.970;2022-09-24T05:10:37;12.80;;;7.47;;
54171;SDS011;40076;52.354;4.970;2022-09-24T05:13:02;10.27;;;3.72;;
54171;SDS011;40076;52.354;4.970;2022-09-24T05:15:27;8.55;;;2.92;;
54171;SDS011;40076;52.354;4.970;2022-09-24T05:17:53;8.80;;;3.10;;
54171;SDS011;40076;52.354;4.970;2022-09-24T05:20:18;10.63;;;3.72;;
54171;SDS011;40076;52.354;4.970;2022-09-24T05:22:45;9.70;;;3.38;;
54171;SDS011;40076;52.354;4.970;2022-09-24T05:25:12;9.15;;;3.60;;
54171;SDS011;40076;52.354;4.970;2022-09-24T05:27:48;9.35;;;3.03;;
54171;SDS011;40076;52.354;4.970;2022-09-24T05:30:18;8.65;;;2.63;;
54171;SDS011;40076;52.354;4.970;2022-09-24T05:32:45;10.88;;;2.85;;
54171;SDS011;40076;52.354;4.970;2022-09-24T05:35:13;7.40;;;2.83;;
54171;SDS011;40076;52.354;4.970;2022-09-24T05:37:39;9.10;;;3.45;;
54171;SDS011;40076;52.354;4.970;2022-09-24T05:40:05;8.35;;;3.22;;
54171;SDS011;40076;52.354;4.970;2022-09-24T05:42:50;10.02;;;3.10;;
54171;SDS011;40076;52.354;4.970;2022-09-24T05:45:16;10.98;;;3.70;;
54171;SDS011;40076;52.354;4.970;2022-09-24T05:47:43;15.10;;;4.07;;
54171;SDS011;40076;52.354;4.970;2022-09-24T05:50:09;8.80;;;2.60;;
54171;SDS011;40076;52.354;4.970;2022-09-24T05:52:35;10.75;;;3.75;;
54171;SDS011;40076;52.354;4.970;2022-09-24T05:55:00;6.35;;;3.22;;
54171;SDS011;40076;52.354;4.970;2022-09-24T05:57:25;10.75;;;4.10;;
54171;SDS011;40076;52.354;4.970;2022-09-24T05:59:50;9.25;;;3.92;;
54171;SDS011;40076;52.354;4.970;2022-09-24T06:02:17;7.18;;;3.78;;
54171;SDS011;40076;52.354;4.970;2022-09-24T06:04:42;8.18;;;4.00;;
54171;SDS011;40076;52.354;4.970;2022-09-24T06:07:07;6.82;;;4.20;;
54171;SDS011;40076;52.354;4.970;2022-09-24T06:09:33;9.07;;;4.78;;
54171;SDS011;40076;52.354;4.970;2022-09-24T06:11:58;8.48;;;4.32;;
54171;SDS011;40076;52.354;4.970;2022-09-24T06:14:23;11.88;;;4.30;;
54171;SDS011;40076;52.354;4.970;2022-09-24T06:16:49;14.35;;;3.60;;
54171;SDS011;40076;52.354;4.970;2022-09-24T06:19:14;15.65;;;2.55;;
54171;SDS011;40076;52.354;4.970;2022-09-24T06:21:39;14.35;;;3.47;;
54171;SDS011;40076;52.354;4.970;2022-09-24T06:24:05;18.08;;;3.17;;
54171;SDS011;40076;52.354;4.970;2022-09-24T06:26:30;16.95;;;3.00;;
54171;SDS011;40076;52.354;4.970;2022-09-24T06:28:57;18.38;;;2.72;;
54171;SDS011;40076;52.354;4.970;2022-09-24T06:31:22;13.30;;;2.90;;
54171;SDS011;40076;52.354;4.970;2022-09-24T06:33:47;18.67;;;3.50;;
54171;SDS011;40076;52.354;4.970;2022-09-24T06:36:13;13.50;;;3.00;;
54171;SDS011;40076;52.354;4.970;2022-09-24T06:38:38;15.88;;;2.70;;
54171;SDS011;40076;52.354;4.970;2022-09-24T06:41:05;17.35;;;3.45;;
54171;SDS011;40076;52.354;4.970;2022-09-24T06:43:31;13.82;;;2.55;;
54171;SDS011;40076;52.354;4.970;2022-09-24T06:45:57;16.10;;;2.35;;
54171;SDS011;40076;52.354;4.970;2022-09-24T06:48:24;18.95;;;2.72;;
54171;SDS011;40076;52.354;4.970;2022-09-24T06:50:50;10.93;;;2.05;;
54171;SDS011;40076;52.354;4.970;2022-09-24T06:53:16;14.13;;;2.42;;
54171;SDS011;40076;52.354;4.970;2022-09-24T06:55:42;15.02;;;2.38;;
54171;SDS011;40076;52.354;4.970;2022-09-24T06:58:09;12.98;;;2.08;;
54171;SDS011;40076;52.354;4.970;2022-09-24T07:00:36;16.30;;;3.08;;
54171;SDS011;40076;52.354;4.970;2022-09-24T07:03:03;14.60;;;2.55;;
54171;SDS011;40076;52.354;4.970;2022-09-24T07:05:29;12.57;;;2.28;;
54171;SDS011;40076;52.354;4.970;2022-09-24T07:07:54;13.23;;;2.25;;
54171;SDS011;40076;52.354;4.970;2022-09-24T07:10:20;15.15;;;2.30;;
54171;SDS011;40076;52.354;4.970;2022-09-24T07:12:48;12.73;;;2.50;;
54171;SDS011;40076;52.354;4.970;2022-09-24T07:15:13;16.67;;;2.80;;
54171;SDS011;40076;52.354;4.970;2022-09-24T07:17:39;13.13;;;2.25;;
54171;SDS011;40076;52.354;4.970;2022-09-24T07:20:04;16.15;;;2.10;;
54171;SDS011;40076;52.354;4.970;2022-09-24T07:22:30;12.30;;;1.92;;
54171;SDS011;40076;52.354;4.970;2022-09-24T07:24:55;13.65;;;2.35;;
54171;SDS011;40076;52.354;4.970;2022-09-24T07:27:21;11.85;;;1.95;;
54171;SDS011;40076;52.354;4.970;2022-09-24T07:29:47;14.13;;;2.88;;
54171;SDS011;40076;52.354;4.970;2022-09-24T07:32:14;11.70;;;2.13;;
54171;SDS011;40076;52.354;4.970;2022-09-24T07:34:41;14.80;;;2.13;;
54171;SDS011;40076;52.354;4.970;2022-09-24T07:37:06;12.55;;;2.65;;
54171;SDS011;40076;52.354;4.970;2022-09-24T07:39:31;16.05;;;2.03;;
54171;SDS011;40076;52.354;4.970;2022-09-24T07:41:57;12.60;;;1.92;;
54171;SDS011;40076;52.354;4.970;2022-09-24T07:44:22;12.80;;;2.30;;
54171;SDS011;40076;52.354;4.970;2022-09-24T07:46:51;14.38;;;2.30;;
54171;SDS011;40076;52.354;4.970;2022-09-24T07:49:16;14.48;;;2.40;;
54171;SDS011;40076;52.354;4.970;2022-09-24T07:51:42;11.98;;;2.53;;
54171;SDS011;40076;52.354;4.970;2022-09-24T07:54:08;15.30;;;2.30;;
54171;SDS011;40076;52.354;4.970;2022-09-24T07:56:34;16.48;;;2.60;;
54171;SDS011;40076;52.354;4.970;2022-09-24T07:59:00;14.40;;;2.00;;
54171;SDS011;40076;52.354;4.970;2022-09-24T08:01:25;14.98;;;2.00;;
54171;SDS011;40076;52.354;4.970;2022-09-24T08:03:51;16.60;;;2.95;;
54171;SDS011;40076;52.354;4.970;2022-09-24T08:06:17;9.77;;;2.50;;
54171;SDS011;40076;52.354;4.970;2022-09-24T08:08:44;12.77;;;1.92;;
54171;SDS011;40076;52.354;4.970;2022-09-24T08:11:10;15.05;;;2.50;;
54171;SDS011;40076;52.354;4.970;2022-09-24T08:13:41;20.52;;;2.30;;
54171;SDS011;40076;52.354;4.970;2022-09-24T08:16:06;17.58;;;2.92;;
54171;SDS011;40076;52.354;4.970;2022-09-24T08:18:31;10.75;;;2.25;;
54171;SDS011;40076;52.354;4.970;2022-09-24T08:20:57;9.95;;;1.73;;
54171;SDS011;40076;52.354;4.970;2022-09-24T08:23:27;16.55;;;2.22;;
54171;SDS011;40076;52.354;4.970;2022-09-24T08:25:53;16.13;;;2.17;;
54171;SDS011;40076;52.354;4.970;2022-09-24T08:28:19;13.93;;;2.47;;
54171;SDS011;40076;52.354;4.970;2022-09-24T08:30:44;11.40;;;1.90;;
54171;SDS011;40076;52.354;4.970;2022-09-24T08:33:10;16.13;;;2.50;;
54171;SDS011;40076;52.354;4.970;2022-09-24T08:35:36;16.13;;;2.55;;
54171;SDS011;40076;52.354;4.970;2022-09-24T08:38:04;13.02;;;2.05;;
54171;SDS011;40076;52.354;4.970;2022-09-24T08:40:30;11.50;;;1.52;;
54171;SDS011;40076;52.354;4.970;2022-09-24T08:45:45;11.43;;;2.00;;
54171;SDS011;40076;52.354;4.970;2022-09-24T08:48:36;15.82;;;2.10;;
54171;SDS011;40076;52.354;4.970;2022-09-24T08:51:05;12.38;;;2.25;;
54171;SDS011;40076;52.354;4.970;2022-09-24T08:56:08;19.23;;;2.47;;
54171;SDS011;40076;52.354;4.970;2022-09-24T09:04:16;7.22;;;2.03;;
54171;SDS011;40076;52.354;4.970;2022-09-24T09:09:31;14.82;;;2.30;;
54171;SDS011;40076;52.354;4.970;2022-09-24T09:12:34;12.50;;;1.75;;
54171;SDS011;40076;52.354;4.970;2022-09-24T09:15:14;9.18;;;1.88;;
54171;SDS011;40076;52.354;4.970;2022-09-24T09:17:48;13.27;;;1.85;;
54171;SDS011;40076;52.354;4.970;2022-09-24T09:20:20;11.25;;;1.92;;
54171;SDS011;40076;52.354;4.970;2022-09-24T09:22:53;13.80;;;2.65;;
54171;SDS011;40076;52.354;4.970;2022-09-24T09:25:23;6.88;;;1.38;;
54171;SDS011;40076;52.354;4.970;2022-09-24T09:27:58;12.13;;;1.73;;
54171;SDS011;40076;52.354;4.970;2022-09-24T09:30:26;15.18;;;2.40;;
54171;SDS011;40076;52.354;4.970;2022-09-24T09:35:48;11.63;;;1.90;;
54171;SDS011;40076;52.354;4.970;2022-09-24T09:38:37;11.35;;;1.80;;
54171;SDS011;40076;52.354;4.970;2022-09-24T09:41:22;12.75;;;1.98;;
54171;SDS011;40076;52.354;4.970;2022-09-24T09:44:19;9.60;;;1.98;;
54171;SDS011;40076;52.354;4.970;2022-09-24T09:49:34;12.10;;;1.85;;
54171;SDS011;40076;52.354;4.970;2022-09-24T09:52:03;6.88;;;1.70;;
54171;SDS011;40076;52.354;4.970;2022-09-24T09:54:37;9.25;;;1.75;;
54171;SDS011;40076;52.354;4.970;2022-09-24T09:57:04;11.50;;;1.98;;
54171;SDS011;40076;52.354;4.970;2022-09-24T09:59:31;11.60;;;2.25;;
54171;SDS011;40076;52.354;4.970;2022-09-24T10:01:59;9.52;;;2.30;;
54171;SDS011;40076;52.354;4.970;2022-09-24T10:09:35;13.20;;;2.55;;
54171;SDS011;40076;52.354;4.970;2022-09-24T10:17:29;9.60;;;1.40;;
54171;SDS011;40076;52.354;4.970;2022-09-24T10:19:58;14.45;;;2.60;;
54171;SDS011;40076;52.354;4.970;2022-09-24T10:22:25;12.13;;;2.03;;
54171;SDS011;40076;52.354;4.970;2022-09-24T10:24:52;12.27;;;1.60;;
54171;SDS011;40076;52.354;4.970;2022-09-24T10:27:37;10.43;;;1.80;;
54171;SDS011;40076;52.354;4.970;2022-09-24T10:30:13;13.30;;;2.13;;
54171;SDS011;40076;52.354;4.970;2022-09-24T10:32:59;12.07;;;1.80;;
54171;SDS011;40076;52.354;4.970;2022-09-24T10:35:31;7.05;;;1.77;;
54171;SDS011;40076;52.354;4.970;2022-09-24T10:38:00;14.80;;;2.40;;
54171;SDS011;40076;52.354;4.970;2022-09-24T10:40:29;6.53;;;1.48;;
54171;SDS011;40076;52.354;4.970;2022-09-24T10:43:03;20.98;;;2.00;;
54171;SDS011;40076;52.354;4.970;2022-09-24T10:48:15;10.18;;;1.40;;
54171;SDS011;40076;52.354;4.970;2022-09-24T10:50:49;10.30;;;1.52;;
54171;SDS011;40076;52.354;4.970;2022-09-24T10:53:30;9.65;;;1.58;;
54171;SDS011;40076;52.354;4.970;2022-09-24T10:56:30;7.90;;;1.60;;
54171;SDS011;40076;52.354;4.970;2022-09-24T11:01:52;8.55;;;1.55;;
54171;SDS011;40076;52.354;4.970;2022-09-24T11:04:41;10.45;;;1.58;;
54171;SDS011;40076;52.354;4.970;2022-09-24T11:10:20;8.95;;;2.13;;
54171;SDS011;40076;52.354;4.970;2022-09-24T11:20:38;9.18;;;1.40;;
54171;SDS011;40076;52.354;4.970;2022-09-24T11:28:59;7.60;;;1.40;;
54171;SDS011;40076;52.354;4.970;2022-09-24T11:31:50;9.70;;;1.73;;
54171;SDS011;40076;52.354;4.970;2022-09-24T11:34:25;7.63;;;1.45;;
54171;SDS011;40076;52.354;4.970;2022-09-24T11:40:53;13.07;;;1.60;;
54171;SDS011;40076;52.354;4.970;2022-09-24T11:55:01;11.02;;;1.48;;
54171;SDS011;40076;52.354;4.970;2022-09-24T12:00:45;8.80;;;2.05;;
54171;SDS011;40076;52.354;4.970;2022-09-24T12:05:51;9.63;;;2.13;;
54171;SDS011;40076;52.354;4.970;2022-09-24T12:08:24;11.85;;;1.35;;
54171;SDS011;40076;52.354;4.970;2022-09-24T12:11:05;8.70;;;1.37;;
54171;SDS011;40076;52.354;4.970;2022-09-24T12:13:44;10.38;;;1.40;;
54171;SDS011;40076;52.354;4.970;2022-09-24T12:22:06;7.57;;;1.17;;
54171;SDS011;40076;52.354;4.970;2022-09-24T12:27:00;7.50;;;1.40;;
54171;SDS011;40076;52.354;4.970;2022-09-24T12:29:51;6.63;;;1.27;;
54171;SDS011;40076;52.354;4.970;2022-09-24T12:32:50;11.63;;;1.50;;
54171;SDS011;40076;52.354;4.970;2022-09-24T12:46:01;6.75;;;1.63;;
54171;SDS011;40076;52.354;4.970;2022-09-24T12:48:30;10.18;;;1.92;;
54171;SDS011;40076;52.354;4.970;2022-09-24T12:51:00;8.38;;;1.20;;
54171;SDS011;40076;52.354;4.970;2022-09-24T12:53:34;8.52;;;1.83;;
54171;SDS011;40076;52.354;4.970;2022-09-24T12:56:02;8.57;;;1.35;;
54171;SDS011;40076;52.354;4.970;2022-09-24T12:58:40;8.50;;;1.30;;
54171;SDS011;40076;52.354;4.970;2022-09-24T13:03:38;9.32;;;1.52;;
54171;SDS011;40076;52.354;4.970;2022-09-24T13:06:20;6.70;;;1.40;;
54171;SDS011;40076;52.354;4.970;2022-09-24T13:08:54;10.43;;;1.67;;
54171;SDS011;40076;52.354;4.970;2022-09-24T13:13:58;8.45;;;1.38;;
54171;SDS011;40076;52.354;4.970;2022-09-24T13:16:36;8.55;;;1.30;;
54171;SDS011;40076;52.354;4.970;2022-09-24T13:19:03;7.65;;;1.30;;
54171;SDS011;40076;52.354;4.970;2022-09-24T13:21:51;8.40;;;1.15;;
54171;SDS011;40076;52.354;4.970;2022-09-24T13:24:25;10.30;;;1.20;;
54171;SDS011;40076;52.354;4.970;2022-09-24T13:26:52;8.48;;;1.27;;
54171;SDS011;40076;52.354;4.970;2022-09-24T13:29:22;6.50;;;1.10;;
54171;SDS011;40076;52.354;4.970;2022-09-24T13:31:50;9.20;;;1.33;;
54171;SDS011;40076;52.354;4.970;2022-09-24T13:34:21;11.57;;;1.83;;
54171;SDS011;40076;52.354;4.970;2022-09-24T13:44:42;10.60;;;1.40;;
54171;SDS011;40076;52.354;4.970;2022-09-24T13:50:33;11.15;;;1.55;;
54171;SDS011;40076;52.354;4.970;2022-09-24T13:53:07;5.05;;;0.90;;
54171;SDS011;40076;52.354;4.970;2022-09-24T13:55:43;8.25;;;1.20;;
54171;SDS011;40076;52.354;4.970;2022-09-24T13:58:29;8.63;;;1.17;;
54171;SDS011;40076;52.354;4.970;2022-09-24T14:01:02;7.78;;;1.45;;
54171;SDS011;40076;52.354;4.970;2022-09-24T14:03:33;6.32;;;1.17;;
54171;SDS011;40076;52.354;4.970;2022-09-24T14:06:01;8.40;;;1.80;;
54171;SDS011;40076;52.354;4.970;2022-09-24T14:08:35;8.80;;;1.20;;
54171;SDS011;40076;52.354;4.970;2022-09-24T14:11:06;8.40;;;1.50;;
54171;SDS011;40076;52.354;4.970;2022-09-24T14:13:39;11.32;;;2.53;;
54171;SDS011;40076;52.354;4.970;2022-09-24T14:16:14;6.82;;;1.42;;
54171;SDS011;40076;52.354;4.970;2022-09-24T14:18:41;11.25;;;1.27;;
54171;SDS011;40076;52.354;4.970;2022-09-24T14:21:16;8.98;;;1.60;;
54171;SDS011;40076;52.354;4.970;2022-09-24T14:23:55;7.45;;;1.30;;
54171;SDS011;40076;52.354;4.970;2022-09-24T14:29:07;10.50;;;1.20;;
54171;SDS011;40076;52.354;4.970;2022-09-24T14:31:50;7.80;;;1.30;;
54171;SDS011;40076;52.354;4.970;2022-09-24T14:36:51;8.20;;;1.63;;
54171;SDS011;40076;52.354;4.970;2022-09-24T14:39:22;10.55;;;1.88;;
54171;SDS011;40076;52.354;4.970;2022-09-24T14:41:50;7.95;;;1.15;;
54171;SDS011;40076;52.354;4.970;2022-09-24T14:44:20;6.22;;;1.15;;
54171;SDS011;40076;52.354;4.970;2022-09-24T14:46:50;12.68;;;1.88;;
54171;SDS011;40076;52.354;4.970;2022-09-24T14:49:19;8.60;;;1.30;;
54171;SDS011;40076;52.354;4.970;2022-09-24T14:52:02;6.80;;;1.40;;
54171;SDS011;40076;52.354;4.970;2022-09-24T14:57:08;8.55;;;1.38;;
54171;SDS011;40076;52.354;4.970;2022-09-24T14:59:42;10.55;;;1.55;;
54171;SDS011;40076;52.354;4.970;2022-09-24T15:02:11;9.38;;;1.25;;
54171;SDS011;40076;52.354;4.970;2022-09-24T15:04:44;8.88;;;1.25;;
54171;SDS011;40076;52.354;4.970;2022-09-24T15:07:16;8.98;;;1.40;;
54171;SDS011;40076;52.354;4.970;2022-09-24T15:09:52;6.00;;;1.13;;
54171;SDS011;40076;52.354;4.970;2022-09-24T15:12:20;6.18;;;1.10;;
54171;SDS011;40076;52.354;4.970;2022-09-24T15:14:55;7.88;;;1.15;;
54171;SDS011;40076;52.354;4.970;2022-09-24T15:17:23;4.82;;;0.93;;
54171;SDS011;40076;52.354;4.970;2022-09-24T15:19:54;6.78;;;1.30;;
54171;SDS011;40076;52.354;4.970;2022-09-24T15:22:21;5.97;;;1.13;;
54171;SDS011;40076;52.354;4.970;2022-09-24T15:24:50;7.00;;;1.10;;
54171;SDS011;40076;52.354;4.970;2022-09-24T15:29:47;8.02;;;2.13;;
54171;SDS011;40076;52.354;4.970;2022-09-24T15:32:18;6.65;;;0.90;;
54171;SDS011;40076;52.354;4.970;2022-09-24T15:34:44;6.67;;;1.10;;
54171;SDS011;40076;52.354;4.970;2022-09-24T15:37:11;7.03;;;1.10;;
54171;SDS011;40076;52.354;4.970;2022-09-24T15:39:39;6.10;;;1.00;;
54171;SDS011;40076;52.354;4.970;2022-09-24T15:42:12;7.78;;;1.48;;
54171;SDS011;40076;52.354;4.970;2022-09-24T15:44:38;5.60;;;1.00;;
54171;SDS011;40076;52.354;4.970;2022-09-24T15:47:03;7.63;;;1.20;;
54171;SDS011;40076;52.354;4.970;2022-09-24T15:49:29;15.88;;;3.60;;
54171;SDS011;40076;52.354;4.970;2022-09-24T15:51:57;7.85;;;1.30;;
54171;SDS011;40076;52.354;4.970;2022-09-24T15:54:25;9.55;;;1.67;;
54171;SDS011;40076;52.354;4.970;2022-09-24T15:56:51;11.35;;;1.60;;
54171;SDS011;40076;52.354;4.970;2022-09-24T15:59:17;6.63;;;1.30;;
54171;SDS011;40076;52.354;4.970;2022-09-24T16:01:44;7.45;;;1.60;;
54171;SDS011;40076;52.354;4.970;2022-09-24T16:04:11;7.75;;;1.30;;
54171;SDS011;40076;52.354;4.970;2022-09-24T16:06:37;9.75;;;1.25;;
54171;SDS011;40076;52.354;4.970;2022-09-24T16:09:03;5.90;;;0.90;;
54171;SDS011;40076;52.354;4.970;2022-09-24T16:11:28;7.40;;;1.10;;
54171;SDS011;40076;52.354;4.970;2022-09-24T16:13:54;7.28;;;1.02;;
54171;SDS011;40076;52.354;4.970;2022-09-24T16:16:19;7.28;;;1.15;;
54171;SDS011;40076;52.354;4.970;2022-09-24T16:18:45;7.63;;;1.50;;
54171;SDS011;40076;52.354;4.970;2022-09-24T16:21:10;4.47;;;0.90;;
54171;SDS011;40076;52.354;4.970;2022-09-24T16:23:36;10.23;;;1.30;;
54171;SDS011;40076;52.354;4.970;2022-09-24T16:26:01;11.25;;;1.33;;
54171;SDS011;40076;52.354;4.970;2022-09-24T16:28:26;8.57;;;1.38;;
54171;SDS011;40076;52.354;4.970;2022-09-24T16:30:53;9.48;;;1.40;;
54171;SDS011;40076;52.354;4.970;2022-09-24T16:33:18;5.28;;;1.15;;
54171;SDS011;40076;52.354;4.970;2022-09-24T16:35:44;6.57;;;1.30;;
54171;SDS011;40076;52.354;4.970;2022-09-24T16:38:10;8.95;;;1.20;;
54171;SDS011;40076;52.354;4.970;2022-09-24T16:40:36;5.75;;;1.20;;
54171;SDS011;40076;52.354;4.970;2022-09-24T16:43:01;7.57;;;1.13;;
54171;SDS011;40076;52.354;4.970;2022-09-24T16:45:27;4.93;;;1.13;;
54171;SDS011;40076;52.354;4.970;2022-09-24T16:47:52;8.75;;;1.27;;
54171;SDS011;40076;52.354;4.970;2022-09-24T16:50:18;6.15;;;1.38;;
54171;SDS011;40076;52.354;4.970;2022-09-24T16:52:44;7.47;;;1.73;;
54171;SDS011;40076;52.354;4.970;2022-09-24T16:55:10;7.30;;;1.17;;
54171;SDS011;40076;52.354;4.970;2022-09-24T16:57:36;4.97;;;1.00;;
54171;SDS011;40076;52.354;4.970;2022-09-24T17:00:03;5.20;;;0.98;;
54171;SDS011;40076;52.354;4.970;2022-09-24T17:02:33;4.53;;;0.82;;
54171;SDS011;40076;52.354;4.970;2022-09-24T17:04:59;5.32;;;1.00;;
54171;SDS011;40076;52.354;4.970;2022-09-24T17:07:25;6.80;;;1.17;;
54171;SDS011;40076;52.354;4.970;2022-09-24T17:09:52;5.07;;;0.93;;